createdAt,value
2022-10-17T00:09:26.327Z,74.62
2022-10-17T00:28:03.535Z,75.26
2022-10-17T00:42:05.358Z,75.05
2022-10-17T00:55:33.393Z,75.19
2022-10-17T01:03:41.873Z,75.33
2022-10-17T01:12:44.010Z,75.36
2022-10-17T01:16:17.253Z,75.12
2022-10-17T01:20:27.185Z,75.10
2022-10-17T01:34:03.216Z,75.06
2022-10-17T01:37:02.549Z,75.04
2022-10-17T01:40:40.332Z,74.97
2022-10-17T01:44:18.649Z,75.11
2022-10-17T01:47:51.703Z,75.21
2022-10-17T01:51:43.501Z,75.23
2022-10-17T01:55:35.359Z,75.15
2022-10-17T01:58:45.347Z,75.14
2022-10-17T02:12:54.349Z,75.22
2022-10-17T02:15:57.634Z,75.29
2022-10-17T02:19:52.132Z,75.40
2022-10-17T02:33:34.683Z,75.33
2022-10-17T02:36:38.830Z,75.54
2022-10-17T02:45:18.366Z,75.74
2022-10-17T03:04:35.054Z,75.68
2022-10-17T03:23:11.896Z,75.74
2022-10-17T03:36:35.842Z,75.61
2022-10-17T03:55:11.434Z,75.72
2022-10-17T03:58:49.250Z,75.73
2022-10-17T04:12:54.886Z,75.75
2022-10-17T04:26:18.709Z,75.51
2022-10-17T04:29:15.740Z,75.41
2022-10-17T04:43:32.669Z,75.58
2022-10-17T04:57:07.089Z,75.69
2022-10-17T05:10:46.051Z,75.61
2022-10-17T05:13:43.834Z,75.42
2022-10-17T05:27:44.734Z,75.70
2022-10-17T05:30:42.138Z,75.81
2022-10-17T05:34:20.206Z,75.77
2022-10-17T05:37:59.351Z,75.93
2022-10-17T05:41:36.506Z,76.03
2022-10-17T05:45:13.893Z,75.83
2022-10-17T05:48:51.443Z,75.86
2022-10-17T05:52:34.154Z,75.75
2022-10-17T05:56:10.455Z,75.72
2022-10-17T06:04:51.979Z,75.54
2022-10-17T06:08:16.354Z,75.78
2022-10-17T06:12:08.735Z,75.83
2022-10-17T06:15:45.715Z,76.00
2022-10-17T06:19:23.187Z,75.90
2022-10-17T06:23:01.924Z,75.52
2022-10-17T06:26:38.632Z,74.76
2022-10-17T06:30:08.546Z,73.96
2022-10-17T06:33:46.058Z,74.24
2022-10-17T06:37:36.316Z,74.17
2022-10-17T06:41:09.035Z,73.88
2022-10-17T06:44:34.950Z,73.17
2022-10-17T06:53:49.971Z,72.95
2022-10-17T07:08:05.302Z,69.26
2022-10-17T07:21:39.494Z,64.55
2022-10-17T07:35:04.058Z,59.51
2022-10-17T07:48:28.013Z,55.59
2022-10-17T08:12:36.610Z,50.24
2022-10-17T08:16:33.460Z,50.04
2022-10-17T08:20:18.969Z,49.78
2022-10-17T08:23:52.204Z,49.22
2022-10-17T08:27:49.819Z,49.12
2022-10-17T08:43:09.769Z,48.46
2022-10-17T08:53:12.903Z,48.43
2022-10-17T09:20:15.837Z,49.20
2022-10-17T09:23:42.478Z,49.21
2022-10-17T09:39:14.285Z,48.13
2022-10-17T09:43:17.300Z,47.93
2022-10-17T09:46:37.097Z,48.09
2022-10-17T09:50:25.918Z,48.40
2022-10-17T09:54:21.085Z,48.63
2022-10-17T09:58:04.449Z,48.31
2022-10-17T10:01:45.615Z,48.45
2022-10-17T10:05:28.708Z,48.52
2022-10-17T10:09:38.092Z,48.59
2022-10-17T10:13:14.262Z,48.77
2022-10-17T10:30:51.929Z,49.52
2022-10-17T10:33:40.419Z,49.75
2022-10-17T10:37:27.131Z,50.00
2022-10-17T10:41:09.252Z,49.94
2022-10-17T10:44:49.866Z,50.16
2022-10-17T10:48:47.965Z,50.19
2022-10-17T10:58:07.850Z,50.35
2022-10-17T11:02:03.017Z,50.40
2022-10-17T11:06:18.906Z,50.56
2022-10-17T11:15:57.135Z,50.69
2022-10-17T11:19:36.599Z,50.75
2022-10-17T11:22:47.517Z,50.76
2022-10-17T11:26:27.067Z,50.76
2022-10-17T11:29:45.437Z,50.79
2022-10-17T11:33:53.284Z,50.79
2022-10-17T11:37:12.866Z,50.85
2022-10-17T11:40:55.748Z,50.59
2022-10-17T11:44:41.089Z,50.53
2022-10-17T11:48:33.933Z,50.48
2022-10-17T11:58:37.458Z,50.31
2022-10-17T12:01:48.447Z,50.04
2022-10-17T12:05:39.685Z,49.34
2022-10-17T12:15:12.504Z,48.89
2022-10-17T12:19:02.207Z,48.81
2022-10-17T12:28:56.385Z,48.54
2022-10-17T12:32:13.487Z,48.33
2022-10-17T12:35:40.007Z,48.20
2022-10-17T12:54:53.526Z,47.82
2022-10-17T12:57:48.890Z,47.64
2022-10-17T13:01:32.525Z,47.81
2022-10-17T13:05:36.777Z,47.82
2022-10-17T13:09:03.553Z,47.80
2022-10-17T13:12:44.085Z,47.62
2022-10-17T13:16:42.310Z,47.77
2022-10-17T13:20:04.953Z,47.78
2022-10-17T13:23:41.679Z,47.70
2022-10-17T13:27:47.351Z,47.53
2022-10-17T13:31:03.762Z,47.46
2022-10-17T13:34:42.698Z,47.43
2022-10-17T13:38:29.102Z,47.47
2022-10-17T13:41:58.975Z,47.37
2022-10-17T13:45:40.214Z,47.36
2022-10-17T13:49:39.606Z,47.42
2022-10-17T13:53:44.797Z,47.26
2022-10-17T13:57:25.956Z,47.43
2022-10-17T14:01:03.513Z,47.42
2022-10-17T14:05:11.837Z,47.15
2022-10-17T14:08:46.973Z,47.16
2022-10-17T14:12:25.065Z,47.18
2022-10-17T14:16:04.799Z,47.29
2022-10-17T14:19:55.458Z,47.19
2022-10-17T14:23:45.879Z,47.40
2022-10-17T14:27:56.917Z,47.38
2022-10-17T14:31:37.213Z,47.45
2022-10-17T14:35:40.394Z,47.72
2022-10-17T14:39:22.340Z,47.89
2022-10-17T14:43:28.893Z,47.98
2022-10-17T14:46:38.192Z,47.99
2022-10-17T14:50:32.293Z,48.07
2022-10-17T14:54:25.764Z,48.17
2022-10-17T14:58:15.748Z,48.23
2022-10-17T15:02:14.295Z,48.39
2022-10-17T15:05:33.263Z,48.52
2022-10-17T15:09:12.558Z,48.60
2022-10-17T15:12:59.079Z,48.58
2022-10-17T15:16:43.730Z,48.84
2022-10-17T15:20:26.252Z,49.17
2022-10-17T15:24:10.006Z,49.39
2022-10-17T15:27:47.900Z,49.56
2022-10-17T15:31:26.966Z,49.64
2022-10-17T15:35:22.830Z,50.03
2022-10-17T15:38:42.003Z,50.20
2022-10-17T15:42:20.662Z,50.09
2022-10-17T15:46:00.997Z,50.42
2022-10-17T15:49:42.053Z,50.52
2022-10-17T15:53:23.177Z,50.78
2022-10-17T15:57:02.067Z,50.94
2022-10-17T16:00:39.911Z,51.01
2022-10-17T16:04:18.720Z,51.07
2022-10-17T16:07:56.354Z,51.49
2022-10-17T16:11:41.517Z,51.51
2022-10-17T16:15:26.146Z,51.80
2022-10-17T16:19:23.331Z,52.42
2022-10-17T16:22:45.646Z,52.26
2022-10-17T16:26:25.787Z,52.44
2022-10-17T16:30:27.510Z,52.56
2022-10-17T16:33:44.394Z,52.83
2022-10-17T16:37:28.316Z,52.82
2022-10-17T16:41:37.042Z,53.08
2022-10-17T16:44:44.918Z,53.25
2022-10-17T16:48:24.959Z,53.29
2022-10-17T16:52:29.234Z,53.41
2022-10-17T16:55:58.760Z,53.43
2022-10-17T16:59:38.462Z,53.68
2022-10-17T17:03:34.521Z,53.64
2022-10-17T17:08:12.792Z,53.94
2022-10-17T17:11:43.514Z,54.09
2022-10-17T17:15:11.581Z,54.00
2022-10-17T17:19:38.578Z,54.20
2022-10-17T17:23:07.417Z,54.39
2022-10-17T17:26:58.220Z,54.52
2022-10-17T17:34:12.101Z,54.85
2022-10-17T17:37:35.350Z,54.85
2022-10-17T17:41:28.930Z,55.02
2022-10-17T17:45:10.311Z,55.05
2022-10-17T17:48:51.004Z,55.15
2022-10-17T17:52:31.293Z,55.31
2022-10-17T17:56:29.972Z,55.32
2022-10-17T17:59:50.324Z,55.39
2022-10-17T18:03:48.775Z,55.49
2022-10-17T18:07:07.911Z,55.51
2022-10-17T18:11:04.491Z,55.68
2022-10-17T18:14:24.591Z,55.78
2022-10-17T18:18:03.123Z,56.01
2022-10-17T18:21:43.745Z,56.19
2022-10-17T18:25:20.844Z,56.05
2022-10-17T18:29:18.546Z,56.47
2022-10-17T18:32:36.188Z,56.32
2022-10-17T18:36:16.121Z,56.28
2022-10-17T18:40:14.053Z,56.41
2022-10-17T18:43:33.711Z,56.52
2022-10-17T18:47:11.580Z,56.69
2022-10-17T18:50:49.305Z,56.64
2022-10-17T18:54:27.173Z,56.71
2022-10-17T18:58:05.707Z,56.91
2022-10-17T19:02:02.316Z,56.70
2022-10-17T19:05:22.577Z,56.85
2022-10-17T19:09:19.132Z,56.89
2022-10-17T19:12:37.622Z,56.86
2022-10-17T19:16:22.971Z,56.93
2022-10-17T19:20:20.339Z,56.99
2022-10-17T19:23:59.178Z,57.05
2022-10-17T19:27:15.463Z,57.08
2022-10-17T19:30:53.130Z,57.11
2022-10-17T19:34:30.630Z,57.26
2022-10-17T19:38:08.705Z,57.32
2022-10-17T19:42:07.088Z,57.38
2022-10-17T19:45:24.396Z,57.56
2022-10-17T19:49:01.992Z,57.54
2022-10-17T19:52:39.639Z,57.44
2022-10-17T19:56:38.187Z,57.55
2022-10-17T19:59:56.088Z,57.56
2022-10-17T20:03:36.853Z,57.72
2022-10-17T20:07:14.237Z,57.74
2022-10-17T20:11:13.551Z,57.82
2022-10-17T20:14:30.507Z,57.90
2022-10-17T20:18:08.661Z,57.87
2022-10-17T20:21:47.882Z,57.91
2022-10-17T20:25:26.149Z,57.90
2022-10-17T20:29:11.375Z,57.98
2022-10-17T20:32:55.151Z,58.34
2022-10-17T20:36:37.790Z,58.52
2022-10-17T20:40:34.243Z,58.37
2022-10-17T20:44:13.173Z,58.28
2022-10-17T20:47:55.261Z,58.25
2022-10-17T20:51:33.291Z,58.23
2022-10-17T20:55:15.362Z,58.40
2022-10-17T20:59:16.318Z,58.51
2022-10-17T21:02:31.799Z,58.39
2022-10-17T21:06:10.740Z,58.34
2022-10-17T21:09:48.057Z,58.34
2022-10-17T21:13:25.981Z,58.31
2022-10-17T21:17:05.273Z,58.31
2022-10-17T21:20:43.125Z,58.20
2022-10-17T21:24:21.254Z,58.29
2022-10-17T21:28:00.470Z,58.30
2022-10-17T21:31:41.231Z,58.30
2022-10-17T21:35:39.574Z,58.50
2022-10-17T21:38:58.610Z,58.42
2022-10-17T21:42:56.383Z,58.34
2022-10-17T21:46:19.854Z,58.34
2022-10-17T21:50:17.567Z,58.31
2022-10-17T21:53:56.962Z,58.30
2022-10-17T21:57:19.011Z,58.26
2022-10-17T22:00:51.594Z,58.22
2022-10-17T22:04:30.879Z,58.22
2022-10-17T22:08:10.460Z,58.23
2022-10-17T22:11:49.972Z,58.24
2022-10-17T22:15:46.497Z,58.24
2022-10-17T22:19:06.922Z,58.20
2022-10-17T22:23:03.546Z,58.28
2022-10-17T22:26:29.269Z,58.32
2022-10-17T22:30:20.238Z,58.36
2022-10-17T22:33:40.236Z,58.40
2022-10-17T22:37:21.587Z,58.31
2022-10-17T22:41:01.856Z,58.32
2022-10-17T22:44:42.516Z,58.31
2022-10-17T22:48:20.410Z,58.34
2022-10-17T22:51:57.698Z,58.37
2022-10-17T22:55:38.216Z,58.29
2022-10-17T22:59:18.295Z,58.40
2022-10-17T23:03:14.794Z,58.35
2022-10-17T23:06:36.166Z,58.36
2022-10-17T23:10:34.190Z,58.36
2022-10-17T23:13:52.523Z,58.37
2022-10-17T23:17:51.351Z,58.38
2022-10-17T23:21:29.087Z,58.46
2022-10-17T23:24:46.013Z,58.45
2022-10-17T23:28:24.871Z,58.55
2022-10-17T23:32:04.169Z,58.59
2022-10-17T23:35:41.958Z,58.60
2022-10-17T23:39:19.212Z,58.63
2022-10-17T23:42:58.159Z,58.64
2022-10-17T23:46:35.871Z,58.59
2022-10-17T23:50:14.493Z,58.56
2022-10-17T23:53:53.910Z,58.63
2022-10-17T23:57:35.241Z,58.64
